createdAt,value
2022-10-01T00:02:09.910Z,96450.83
2022-10-01T00:04:39.744Z,96447.51
2022-10-01T00:07:11.155Z,96445.69
2022-10-01T00:09:39.565Z,96448.71
2022-10-01T00:12:08.278Z,96446.77
2022-10-01T00:14:39.347Z,96442.23
2022-10-01T00:17:07.686Z,96443.75
2022-10-01T00:19:36.079Z,96443.11
2022-10-01T00:22:04.393Z,96443.77
2022-10-01T00:24:32.769Z,96446.51
2022-10-01T00:27:01.052Z,96445.38
2022-10-01T00:29:32.043Z,96445.50
2022-10-01T00:32:00.583Z,96444.92
2022-10-01T00:34:28.993Z,96442.86
2022-10-01T00:36:57.886Z,96442.89
2022-10-01T00:39:26.314Z,96441.31
2022-10-01T00:41:54.872Z,96440.06
2022-10-01T00:44:35.625Z,96437.27
2022-10-01T00:47:23.982Z,96438.29
2022-10-01T00:49:59.301Z,96439.85
2022-10-01T00:52:32.336Z,96436.16
2022-10-01T00:55:43.661Z,96431.38
2022-10-01T00:58:14.897Z,96424.66
2022-10-01T01:00:43.529Z,96414.91
2022-10-01T01:03:13.006Z,96413.50
2022-10-01T01:05:41.549Z,96411.52
2022-10-01T01:08:11.112Z,96405.36
2022-10-01T01:11:04.685Z,96409.31
2022-10-01T01:14:10.560Z,96404.84
2022-10-01T01:16:49.849Z,96408.95
2022-10-01T01:20:09.313Z,96406.91
2022-10-01T01:22:46.665Z,96405.59
2022-10-01T01:25:21.969Z,96408.09
2022-10-01T01:28:20.017Z,96411.46
2022-10-01T01:30:51.989Z,96413.91
2022-10-01T01:33:22.523Z,96412.27
2022-10-01T01:36:04.896Z,96412.63
2022-10-01T01:38:43.331Z,96414.52
2022-10-01T01:41:13.615Z,96412.75
2022-10-01T01:43:46.087Z,96410.27
2022-10-01T01:46:18.909Z,96410.98
2022-10-01T01:48:51.365Z,96407.48
2022-10-01T01:51:26.294Z,96407.01
2022-10-01T01:53:54.794Z,96404.30
2022-10-01T01:56:24.176Z,96402.45
2022-10-01T01:58:57.546Z,96402.13
2022-10-01T02:01:38.116Z,96402.45
2022-10-01T02:04:20.783Z,96398.57
2022-10-01T02:06:57.940Z,96399.02
2022-10-01T02:09:58.431Z,96401.89
2022-10-01T02:12:41.758Z,96401.32
2022-10-01T02:15:27.809Z,96403.36
2022-10-01T02:18:22.945Z,96400.57
2022-10-01T02:21:20.819Z,96403.61
2022-10-01T02:24:05.223Z,96407.02
2022-10-01T02:26:37.697Z,96409.55
2022-10-01T02:29:10.133Z,96409.48
2022-10-01T02:31:40.017Z,96406.85
2022-10-01T02:34:12.661Z,96404.59
2022-10-01T02:36:42.707Z,96405.80
2022-10-01T02:39:15.260Z,96408.76
2022-10-01T02:41:46.172Z,96414.50
2022-10-01T02:44:23.696Z,96420.22
2022-10-01T02:47:03.202Z,96417.58
2022-10-01T02:49:32.389Z,96416.80
2022-10-01T02:52:13.304Z,96413.56
2022-10-01T02:55:15.150Z,96412.73
2022-10-01T02:57:43.958Z,96409.38
2022-10-01T03:00:17.052Z,96402.38
2022-10-01T03:02:45.395Z,96398.34
2022-10-01T03:05:15.650Z,96396.42
2022-10-01T03:07:44.532Z,96399.02
2022-10-01T03:10:13.599Z,96399.46
2022-10-01T03:12:44.386Z,96404.86
2022-10-01T03:15:14.967Z,96403.20
2022-10-01T03:17:43.510Z,96404.88
2022-10-01T03:20:12.592Z,96405.27
2022-10-01T03:22:40.841Z,96405.35
2022-10-01T03:25:09.679Z,96407.03
2022-10-01T03:27:38.445Z,96404.46
2022-10-01T03:30:07.413Z,96411.29
2022-10-01T03:32:35.932Z,96408.95
2022-10-01T03:35:04.941Z,96405.86
2022-10-01T03:37:33.400Z,96406.10
2022-10-01T03:40:01.980Z,96403.94
2022-10-01T03:42:30.313Z,96402.52
2022-10-01T03:44:58.590Z,96398.16
2022-10-01T03:47:26.889Z,96400.38
2022-10-01T03:49:55.139Z,96397.85
2022-10-01T03:52:23.539Z,96396.89
2022-10-01T03:54:51.901Z,96397.81
2022-10-01T03:57:20.195Z,96400.84
2022-10-01T03:59:48.506Z,96407.39
2022-10-01T04:02:17.008Z,96409.55
2022-10-01T04:04:45.428Z,96410.36
2022-10-01T04:07:13.709Z,96408.52
2022-10-01T04:09:42.048Z,96409.86
2022-10-01T04:12:10.721Z,96412.63
2022-10-01T04:14:39.120Z,96414.40
2022-10-01T04:17:07.484Z,96415.80
2022-10-01T04:19:35.835Z,96411.56
2022-10-01T04:22:04.154Z,96412.85
2022-10-01T04:24:32.457Z,96414.21
2022-10-01T04:27:00.790Z,96415.95
2022-10-01T04:29:29.088Z,96418.19
2022-10-01T04:31:58.414Z,96417.73
2022-10-01T04:34:46.716Z,96417.40
2022-10-01T04:37:15.040Z,96419.58
2022-10-01T04:39:43.335Z,96421.63
2022-10-01T04:42:15.125Z,96424.96
2022-10-01T04:44:43.414Z,96426.27
2022-10-01T04:47:11.811Z,96426.33
2022-10-01T04:49:40.168Z,96432.95
2022-10-01T04:52:08.480Z,96438.63
2022-10-01T04:54:36.791Z,96443.33
2022-10-01T04:57:05.092Z,96442.52
2022-10-01T04:59:33.813Z,96445.69
2022-10-01T05:02:02.202Z,96444.13
2022-10-01T05:04:30.580Z,96441.42
2022-10-01T05:06:58.921Z,96446.77
2022-10-01T05:09:27.286Z,96449.55
2022-10-01T05:11:55.605Z,96454.88
2022-10-01T05:14:25.103Z,96458.67
2022-10-01T05:16:53.414Z,96459.82
2022-10-01T05:19:25.284Z,96464.16
2022-10-01T05:21:56.853Z,96464.61
2022-10-01T05:24:25.681Z,96465.18
2022-10-01T05:26:54.458Z,96469.05
2022-10-01T05:29:23.262Z,96471.05
2022-10-01T05:31:51.661Z,96474.67
2022-10-01T05:34:20.084Z,96476.14
2022-10-01T05:36:48.394Z,96472.11
2022-10-01T05:39:16.716Z,96474.42
2022-10-01T05:41:45.047Z,96467.59
2022-10-01T05:44:13.388Z,96471.05
2022-10-01T05:46:43.878Z,96465.52
2022-10-01T05:49:12.198Z,96463.55
2022-10-01T05:51:40.510Z,96463.47
2022-10-01T05:54:08.889Z,96460.61
2022-10-01T05:56:37.290Z,96458.48
2022-10-01T05:59:06.040Z,96456.70
2022-10-01T06:01:34.512Z,96455.09
2022-10-01T06:04:03.363Z,96453.21
2022-10-01T06:06:31.692Z,96449.38
2022-10-01T06:09:00.113Z,96447.72
2022-10-01T06:11:29.007Z,96445.78
2022-10-01T06:13:57.415Z,96448.95
2022-10-01T06:16:25.905Z,96453.23
2022-10-01T06:18:57.741Z,96451.08
2022-10-01T06:21:27.107Z,96453.35
2022-10-01T06:23:55.477Z,96458.42
2022-10-01T06:26:24.805Z,96452.92
2022-10-01T06:28:53.129Z,96450.50
2022-10-01T06:31:22.329Z,96447.48
2022-10-01T06:33:50.776Z,96446.64
2022-10-01T06:36:19.111Z,96445.68
2022-10-01T06:38:50.854Z,96442.10
2022-10-01T06:41:20.121Z,96445.35
2022-10-01T06:43:49.445Z,96439.36
2022-10-01T06:46:17.782Z,96433.73
2022-10-01T06:48:46.136Z,96428.69
2022-10-01T06:51:14.425Z,96424.42
2022-10-01T06:53:42.688Z,96420.63
2022-10-01T06:56:10.965Z,96418.95
2022-10-01T06:58:42.770Z,96415.31
2022-10-01T07:01:11.380Z,96420.97
2022-10-01T07:03:39.846Z,96415.55
2022-10-01T07:06:10.034Z,96408.94
2022-10-01T07:08:38.816Z,96402.80
2022-10-01T07:11:07.271Z,96395.64
2022-10-01T07:13:35.603Z,96396.17
2022-10-01T07:16:05.153Z,96399.39
2022-10-01T07:18:33.697Z,96398.60
2022-10-01T07:21:02.057Z,96395.41
2022-10-01T07:23:30.436Z,96393.77
2022-10-01T07:25:59.243Z,96396.46
2022-10-01T07:28:28.441Z,96402.20
2022-10-01T07:31:11.562Z,96403.10
2022-10-01T07:33:40.945Z,96407.41
2022-10-01T07:36:12.517Z,96405.77
2022-10-01T07:38:42.029Z,96406.98
2022-10-01T07:41:10.651Z,96405.29
2022-10-01T07:43:39.587Z,96401.86
2022-10-01T07:46:07.929Z,96398.81
2022-10-01T07:48:37.089Z,96391.81
2022-10-01T07:51:05.487Z,96392.55
2022-10-01T07:53:33.828Z,96390.37
2022-10-01T07:56:03.134Z,96392.55
2022-10-01T07:58:31.490Z,96393.20
2022-10-01T08:01:04.281Z,96389.33
2022-10-01T08:03:32.830Z,96387.74
2022-10-01T08:06:03.718Z,96383.67
2022-10-01T08:08:32.216Z,96386.85
2022-10-01T08:11:03.637Z,96386.36
2022-10-01T08:13:32.043Z,96384.27
2022-10-01T08:16:03.997Z,96381.67
2022-10-01T08:18:33.828Z,96377.54
2022-10-01T08:21:02.514Z,96369.53
2022-10-01T08:23:33.649Z,96361.70
2022-10-01T08:26:07.898Z,96357.52
2022-10-01T08:28:36.449Z,96353.48
2022-10-01T08:31:09.314Z,96353.91
2022-10-01T08:33:39.150Z,96352.92
2022-10-01T08:36:08.845Z,96348.17
2022-10-01T08:38:37.915Z,96343.30
2022-10-01T08:41:46.800Z,96340.84
2022-10-01T08:44:21.906Z,96338.41
2022-10-01T08:46:51.567Z,96336.05
2022-10-01T08:49:37.973Z,96335.91
2022-10-01T08:52:15.962Z,96335.08
2022-10-01T08:54:51.650Z,96335.79
2022-10-01T08:57:30.053Z,96334.12
2022-10-01T09:00:01.565Z,96326.16
2022-10-01T09:02:33.545Z,96321.34
2022-10-01T09:05:11.205Z,96319.13
2022-10-01T09:07:52.078Z,96312.95
2022-10-01T09:10:28.823Z,96316.50
2022-10-01T09:13:21.602Z,96312.94
2022-10-01T09:15:59.945Z,96315.11
2022-10-01T09:18:57.885Z,96313.97
2022-10-01T09:21:51.491Z,96312.66
2022-10-01T09:24:26.815Z,96308.96
2022-10-01T09:26:55.529Z,96310.52
2022-10-01T09:29:35.915Z,96307.89
2022-10-01T09:32:06.159Z,96303.38
2022-10-01T09:34:40.298Z,96303.48
2022-10-01T09:37:14.988Z,96298.65
2022-10-01T09:39:57.804Z,96295.78
2022-10-01T09:42:29.796Z,96291.25
2022-10-01T09:44:58.657Z,96287.71
2022-10-01T09:47:27.348Z,96288.73
2022-10-01T09:49:58.947Z,96293.02
2022-10-01T09:52:40.067Z,96287.05
2022-10-01T09:55:11.348Z,96286.14
2022-10-01T09:57:46.571Z,96283.74
2022-10-01T10:00:21.029Z,96289.11
2022-10-01T10:02:51.853Z,96289.48
2022-10-01T10:05:26.380Z,96291.06
2022-10-01T10:08:11.457Z,96289.99
2022-10-01T10:10:49.335Z,96286.14
2022-10-01T10:13:26.874Z,96289.08
2022-10-01T10:16:00.116Z,96286.98
2022-10-01T10:18:35.658Z,96290.55
2022-10-01T10:21:12.173Z,96288.21
2022-10-01T10:23:50.174Z,96287.44
2022-10-01T10:26:34.978Z,96277.33
2022-10-01T10:29:05.701Z,96267.79
2022-10-01T10:31:44.256Z,96265.60
2022-10-01T10:34:15.397Z,96258.38
2022-10-01T10:36:45.972Z,96260.66
2022-10-01T10:39:22.301Z,96258.72
2022-10-01T10:41:52.504Z,96250.70
2022-10-01T10:44:22.795Z,96249.66
2022-10-01T10:46:52.513Z,96247.55
2022-10-01T10:49:21.904Z,96249.54
2022-10-01T10:51:55.591Z,96247.45
2022-10-01T10:54:30.456Z,96239.98
2022-10-01T10:57:12.248Z,96238.32
2022-10-01T10:59:40.780Z,96233.89
2022-10-01T11:02:18.301Z,96228.96
2022-10-01T11:04:47.700Z,96220.34
2022-10-01T11:07:21.820Z,96203.21
2022-10-01T11:10:03.846Z,96193.21
2022-10-01T11:13:06.921Z,96180.30
2022-10-01T11:16:03.402Z,96175.58
2022-10-01T11:18:56.212Z,96174.65
2022-10-01T11:21:39.574Z,96175.89
2022-10-01T11:24:36.116Z,96170.45
2022-10-01T11:27:26.760Z,96171.25
2022-10-01T11:30:21.136Z,96166.73
2022-10-01T11:33:15.298Z,96164.36
2022-10-01T11:35:52.789Z,96165.59
2022-10-01T11:38:38.334Z,96157.66
2022-10-01T11:41:12.314Z,96160.31
2022-10-01T11:43:51.360Z,96152.67
2022-10-01T11:46:51.848Z,96155.30
2022-10-01T11:49:42.821Z,96151.66
2022-10-01T11:52:34.022Z,96151.36
2022-10-01T11:55:44.106Z,96146.33
2022-10-01T11:58:36.985Z,96135.85
2022-10-01T12:01:24.532Z,96134.94
2022-10-01T12:03:52.777Z,96132.09
2022-10-01T12:06:34.215Z,96126.19
2022-10-01T12:09:23.567Z,96117.64
2022-10-01T12:12:06.946Z,96107.61
2022-10-01T12:15:16.703Z,96098.29
2022-10-01T12:17:51.823Z,96092.73
2022-10-01T12:20:38.218Z,96091.86
2022-10-01T12:23:14.143Z,96088.59
2022-10-01T12:25:57.017Z,96086.53
2022-10-01T12:28:49.143Z,96079.80
2022-10-01T12:31:42.175Z,96071.66
2022-10-01T12:34:39.552Z,96062.88
2022-10-01T12:37:19.962Z,96066.20
2022-10-01T12:40:07.106Z,96067.59
2022-10-01T12:42:41.156Z,96060.69
2022-10-01T12:45:30.464Z,96061.86
2022-10-01T12:48:36.182Z,96057.48
2022-10-01T12:51:21.420Z,96057.48
2022-10-01T12:53:56.240Z,96053.25
2022-10-01T12:56:36.626Z,96052.01
2022-10-01T12:59:31.923Z,96051.33
2022-10-01T13:02:13.520Z,96045.35
2022-10-01T13:04:59.207Z,96041.45
2022-10-01T13:07:33.536Z,96037.86
2022-10-01T13:10:14.724Z,96036.13
2022-10-01T13:13:17.007Z,96030.48
2022-10-01T13:15:49.764Z,96035.85
2022-10-01T13:18:18.023Z,96020.30
2022-10-01T13:20:54.447Z,96021.02
2022-10-01T13:23:44.017Z,96021.95
2022-10-01T13:26:12.259Z,96015.56
2022-10-01T13:29:07.388Z,96011.30
2022-10-01T13:31:52.011Z,96010.08
2022-10-01T13:34:41.821Z,96001.18
2022-10-01T13:37:17.184Z,95985.71
2022-10-01T13:39:47.341Z,95982.97
2022-10-01T13:42:27.750Z,95981.85
2022-10-01T13:45:04.950Z,95984.29
2022-10-01T13:47:41.427Z,95987.48
2022-10-01T13:50:25.038Z,95987.27
2022-10-01T13:53:06.716Z,95987.52
2022-10-01T13:55:41.030Z,95993.50
2022-10-01T13:58:30.880Z,95987.66
2022-10-01T14:01:03.034Z,95976.52
2022-10-01T14:03:39.459Z,95973.33
2022-10-01T14:06:16.959Z,95972.23
2022-10-01T14:08:51.474Z,95968.05
2022-10-01T14:11:45.717Z,95966.22
2022-10-01T14:14:38.471Z,95966.16
2022-10-01T14:17:09.563Z,95962.13
2022-10-01T14:19:45.752Z,95958.71
2022-10-01T14:22:14.009Z,95964.41
2022-10-01T14:25:03.371Z,95957.56
2022-10-01T14:27:57.727Z,95959.08
2022-10-01T14:30:52.500Z,95955.58
2022-10-01T14:33:39.142Z,95952.57
2022-10-01T14:36:20.259Z,95945.49
2022-10-01T14:38:48.611Z,95940.98
2022-10-01T14:41:24.152Z,95936.77
2022-10-01T14:43:52.448Z,95937.11
2022-10-01T14:46:20.801Z,95931.61
2022-10-01T14:49:01.016Z,95929.27
2022-10-01T14:51:31.450Z,95923.70
2022-10-01T14:54:00.756Z,95914.06
2022-10-01T14:56:29.700Z,95905.52
2022-10-01T14:59:07.430Z,95901.96
2022-10-01T15:01:35.806Z,95889.73
2022-10-01T15:04:14.885Z,95876.80
2022-10-01T15:06:43.537Z,95868.38
2022-10-01T15:09:18.933Z,95867.14
2022-10-01T15:11:50.539Z,95862.11
2022-10-01T15:14:24.515Z,95857.75
2022-10-01T15:16:53.086Z,95853.94
2022-10-01T15:19:23.539Z,95849.40
2022-10-01T15:21:52.025Z,95849.60
2022-10-01T15:24:42.536Z,95846.09
2022-10-01T15:27:13.842Z,95825.94
2022-10-01T15:29:43.984Z,95823.10
2022-10-01T15:32:17.800Z,95812.79
2022-10-01T15:34:55.330Z,95815.54
2022-10-01T15:37:38.354Z,95821.36
2022-10-01T15:40:20.315Z,95824.26
2022-10-01T15:43:07.544Z,95829.24
2022-10-01T15:45:36.360Z,95823.55
2022-10-01T15:48:04.767Z,95822.59
2022-10-01T15:50:37.363Z,95819.67
2022-10-01T15:53:23.667Z,95812.42
2022-10-01T15:55:57.183Z,95805.38
2022-10-01T15:58:31.935Z,95802.82
2022-10-01T16:01:10.684Z,95799.23
2022-10-01T16:03:42.612Z,95799.40
2022-10-01T16:06:25.530Z,95797.87
2022-10-01T16:09:16.182Z,95799.94
2022-10-01T16:12:04.401Z,95808.73
2022-10-01T16:14:43.961Z,95816.45
2022-10-01T16:17:18.465Z,95815.33
2022-10-01T16:20:15.710Z,95821.23
2022-10-01T16:22:44.152Z,95822.45
2022-10-01T16:25:21.579Z,95827.42
2022-10-01T16:28:04.556Z,95833.85
2022-10-01T16:30:34.336Z,95840.40
2022-10-01T16:33:05.467Z,95855.04
2022-10-01T16:35:40.890Z,95853.69
2022-10-01T16:38:09.912Z,95856.48
2022-10-01T16:40:44.121Z,95860.64
2022-10-01T16:43:18.914Z,95858.94
2022-10-01T16:45:47.273Z,95865.86
2022-10-01T16:48:23.160Z,95868.81
2022-10-01T16:50:54.422Z,95870.29
2022-10-01T16:53:25.059Z,95870.89
2022-10-01T16:55:54.959Z,95869.12
2022-10-01T16:58:23.352Z,95870.52
2022-10-01T17:00:52.109Z,95871.95
2022-10-01T17:03:25.236Z,95873.36
2022-10-01T17:05:53.633Z,95878.42
2022-10-01T17:08:21.941Z,95878.11
2022-10-01T17:10:58.779Z,95873.46
2022-10-01T17:13:32.986Z,95878.80
2022-10-01T17:16:01.829Z,95881.84
2022-10-01T17:18:30.141Z,95882.80
2022-10-01T17:21:05.806Z,95893.91
2022-10-01T17:23:35.825Z,95900.39
2022-10-01T17:26:08.800Z,95914.87
2022-10-01T17:28:37.083Z,95913.61
2022-10-01T17:31:08.761Z,95913.31
2022-10-01T17:33:38.148Z,95919.13
2022-10-01T17:36:08.325Z,95922.63
2022-10-01T17:38:37.404Z,95919.14
2022-10-01T17:41:06.147Z,95911.77
2022-10-01T17:43:34.626Z,95912.08
2022-10-01T17:46:03.250Z,95915.79
2022-10-01T17:48:31.596Z,95923.78
2022-10-01T17:51:01.102Z,95930.38
2022-10-01T17:53:35.083Z,95926.32
2022-10-01T17:56:18.247Z,95931.98
2022-10-01T17:58:46.928Z,95931.00
2022-10-01T18:01:20.116Z,95930.08
2022-10-01T18:03:54.232Z,95931.73
2022-10-01T18:06:24.519Z,95941.93
2022-10-01T18:08:56.198Z,95952.08
2022-10-01T18:11:28.310Z,95949.77
2022-10-01T18:13:56.897Z,95947.17
2022-10-01T18:16:26.211Z,95948.97
2022-10-01T18:21:49.139Z,95938.38
2022-10-01T18:24:18.057Z,95945.35
2022-10-01T18:26:46.665Z,95941.79
2022-10-01T18:29:24.310Z,95935.11
2022-10-01T18:32:07.657Z,95925.85
2022-10-01T18:34:42.163Z,95922.37
2022-10-01T18:37:28.886Z,95914.75
2022-10-01T18:40:06.103Z,95901.00
2022-10-01T18:42:46.251Z,95893.78
2022-10-01T18:45:18.279Z,95884.61
2022-10-01T18:47:52.458Z,95878.73
2022-10-01T18:50:49.411Z,95872.00
2022-10-01T18:53:38.273Z,95861.23
2022-10-01T18:56:18.700Z,95850.77
2022-10-01T18:59:33.168Z,95830.97
2022-10-01T19:02:40.016Z,95800.70
2022-10-01T19:05:20.250Z,95799.52
2022-10-01T19:07:48.503Z,95803.02
2022-10-01T19:10:51.981Z,95796.58
2022-10-01T19:13:30.590Z,95789.32
2022-10-01T19:16:14.235Z,95781.99
2022-10-01T19:19:16.893Z,95774.49
2022-10-01T19:21:58.575Z,95775.80
2022-10-01T19:24:41.274Z,95773.73
2022-10-01T19:27:30.856Z,95776.65
2022-10-01T19:30:02.097Z,95765.89
2022-10-01T19:32:42.564Z,95764.50
2022-10-01T19:35:17.232Z,95763.54
2022-10-01T19:37:52.731Z,95765.21
2022-10-01T19:40:30.367Z,95757.97
2022-10-01T19:43:18.081Z,95754.45
2022-10-01T19:46:05.003Z,95748.45
2022-10-01T19:48:51.324Z,95739.16
2022-10-01T19:51:23.967Z,95745.08
2022-10-01T19:54:02.282Z,95751.47
2022-10-01T19:56:33.854Z,95761.11
2022-10-01T19:59:11.229Z,95767.19
2022-10-01T20:01:46.712Z,95769.27
2022-10-01T20:04:31.377Z,95772.94
2022-10-01T20:07:37.161Z,95770.08
2022-10-01T20:10:11.660Z,95775.40
2022-10-01T20:12:44.879Z,95773.47
2022-10-01T20:15:14.875Z,95780.69
2022-10-01T20:17:46.406Z,95789.15
2022-10-01T20:20:21.121Z,95788.81
2022-10-01T20:23:01.875Z,95787.87
2022-10-01T20:25:35.802Z,95784.13
2022-10-01T20:28:25.671Z,95781.77
2022-10-01T20:30:58.372Z,95771.91
2022-10-01T20:33:43.261Z,95778.24
2022-10-01T20:36:22.132Z,95792.49
2022-10-01T20:39:04.067Z,95802.00
2022-10-01T20:41:42.577Z,95810.21
2022-10-01T20:44:17.452Z,95809.86
2022-10-01T20:46:50.490Z,95813.29
2022-10-01T20:49:43.821Z,95811.59
2022-10-01T20:52:34.578Z,95807.06
2022-10-01T20:55:12.970Z,95811.85
2022-10-01T20:57:49.671Z,95811.66
2022-10-01T21:00:21.322Z,95810.52
2022-10-01T21:02:59.481Z,95812.23
2022-10-01T21:05:37.698Z,95812.13
2022-10-01T21:08:18.092Z,95803.92
2022-10-01T21:10:59.800Z,95798.87
2022-10-01T21:13:31.192Z,95791.66
2022-10-01T21:16:18.111Z,95798.05
2022-10-01T21:19:14.316Z,95785.10
2022-10-01T21:22:07.697Z,95780.47
2022-10-01T21:25:01.690Z,95782.11
2022-10-01T21:27:35.230Z,95777.41
2022-10-01T21:30:16.240Z,95773.00
2022-10-01T21:33:03.256Z,95781.62
2022-10-01T21:35:50.239Z,95787.93
2022-10-01T21:38:29.761Z,95785.07
2022-10-01T21:41:24.387Z,95777.48
2022-10-01T21:44:27.856Z,95768.95
2022-10-01T21:47:23.699Z,95769.19
2022-10-01T21:50:15.536Z,95778.61
2022-10-01T21:53:02.366Z,95781.27
2022-10-01T21:56:14.008Z,95777.13
2022-10-01T21:59:07.638Z,95772.63
2022-10-01T22:02:11.110Z,95766.27
2022-10-01T22:04:46.127Z,95763.46
2022-10-01T22:07:28.291Z,95754.31
2022-10-01T22:10:04.678Z,95756.68
2022-10-01T22:12:37.471Z,95765.67
2022-10-01T22:15:21.465Z,95759.09
2022-10-01T22:17:53.932Z,95752.25
2022-10-01T22:20:31.081Z,95744.75
2022-10-01T22:23:09.156Z,95739.77
2022-10-01T22:25:49.031Z,95746.04
2022-10-01T22:28:23.220Z,95746.44
2022-10-01T22:30:54.179Z,95742.14
2022-10-01T22:33:32.363Z,95737.89
2022-10-01T22:36:11.996Z,95741.33
2022-10-01T22:38:57.006Z,95741.23
2022-10-01T22:41:37.695Z,95742.30
2022-10-01T22:44:16.812Z,95736.71
2022-10-01T22:47:07.777Z,95726.96
2022-10-01T22:50:02.109Z,95731.96
2022-10-01T22:53:03.731Z,95735.96
2022-10-01T22:55:50.237Z,95734.80
2022-10-01T22:58:27.904Z,95741.30
2022-10-01T23:01:21.999Z,95747.91
2022-10-01T23:04:16.577Z,95742.63
2022-10-01T23:07:09.098Z,95744.53
2022-10-01T23:10:01.092Z,95749.11
2022-10-01T23:12:41.350Z,95751.02
2022-10-01T23:15:24.840Z,95748.24
2022-10-01T23:18:05.390Z,95743.71
2022-10-01T23:20:43.861Z,95734.45
2022-10-01T23:23:32.293Z,95733.80
2022-10-01T23:26:49.156Z,95741.51
2022-10-01T23:29:48.472Z,95742.82
2022-10-01T23:32:22.826Z,95741.41
2022-10-01T23:35:16.402Z,95742.92
2022-10-01T23:38:15.765Z,95743.87
2022-10-01T23:40:48.385Z,95750.46
2022-10-01T23:43:22.297Z,95758.42
2022-10-01T23:46:17.876Z,95755.14
2022-10-01T23:49:04.147Z,95757.10
2022-10-01T23:51:48.751Z,95759.80
2022-10-01T23:54:48.492Z,95765.26
2022-10-01T23:57:24.216Z,95774.58
